sensor_id;sensor_type;location;lat;lon;timestamp;P1;durP1;ratioP1;P2;durP2;ratioP2
57325;SDS011;43161;50.950;18.224;2023-04-25T00:01:24;16.60;;;7.90;;
57325;SDS011;43161;50.950;18.224;2023-04-25T00:03:49;18.20;;;8.10;;
57325;SDS011;43161;50.950;18.224;2023-04-25T00:06:15;16.30;;;7.40;;
57325;SDS011;43161;50.950;18.224;2023-04-25T00:08:43;15.50;;;7.40;;
57325;SDS011;43161;50.950;18.224;2023-04-25T00:11:08;13.90;;;6.90;;
57325;SDS011;43161;50.950;18.224;2023-04-25T00:13:34;14.50;;;6.60;;
57325;SDS011;43161;50.950;18.224;2023-04-25T00:16:00;13.40;;;5.80;;
57325;SDS011;43161;50.950;18.224;2023-04-25T00:18:26;15.70;;;6.50;;
57325;SDS011;43161;50.950;18.224;2023-04-25T00:20:55;14.20;;;6.10;;
57325;SDS011;43161;50.950;18.224;2023-04-25T00:23:21;12.00;;;5.50;;
57325;SDS011;43161;50.950;18.224;2023-04-25T00:25:47;11.30;;;5.50;;
57325;SDS011;43161;50.950;18.224;2023-04-25T00:28:14;10.60;;;5.00;;
57325;SDS011;43161;50.950;18.224;2023-04-25T00:30:40;11.70;;;4.70;;
57325;SDS011;43161;50.950;18.224;2023-04-25T00:33:06;11.70;;;4.40;;
57325;SDS011;43161;50.950;18.224;2023-04-25T00:35:32;10.70;;;4.20;;
57325;SDS011;43161;50.950;18.224;2023-04-25T00:37:58;9.70;;;3.50;;
57325;SDS011;43161;50.950;18.224;2023-04-25T00:40:24;14.50;;;3.40;;
57325;SDS011;43161;50.950;18.224;2023-04-25T00:42:51;9.20;;;3.30;;
57325;SDS011;43161;50.950;18.224;2023-04-25T00:45:17;9.60;;;3.20;;
57325;SDS011;43161;50.950;18.224;2023-04-25T00:47:43;9.70;;;3.20;;
57325;SDS011;43161;50.950;18.224;2023-04-25T00:50:09;8.80;;;3.00;;
57325;SDS011;43161;50.950;18.224;2023-04-25T00:52:36;10.90;;;2.50;;
57325;SDS011;43161;50.950;18.224;2023-04-25T00:55:06;7.90;;;2.60;;
57325;SDS011;43161;50.950;18.224;2023-04-25T00:57:32;9.60;;;2.60;;
57325;SDS011;43161;50.950;18.224;2023-04-25T00:59:58;8.40;;;2.60;;
57325;SDS011;43161;50.950;18.224;2023-04-25T01:02:24;7.80;;;2.60;;
57325;SDS011;43161;50.950;18.224;2023-04-25T01:04:50;9.80;;;3.30;;
57325;SDS011;43161;50.950;18.224;2023-04-25T01:07:16;8.00;;;3.10;;
57325;SDS011;43161;50.950;18.224;2023-04-25T01:09:42;8.20;;;2.90;;
57325;SDS011;43161;50.950;18.224;2023-04-25T01:12:08;9.40;;;2.90;;
57325;SDS011;43161;50.950;18.224;2023-04-25T01:14:33;7.30;;;2.70;;
57325;SDS011;43161;50.950;18.224;2023-04-25T01:16:59;7.20;;;2.70;;
57325;SDS011;43161;50.950;18.224;2023-04-25T01:19:25;6.60;;;2.40;;
57325;SDS011;43161;50.950;18.224;2023-04-25T01:21:51;8.40;;;2.50;;
57325;SDS011;43161;50.950;18.224;2023-04-25T01:24:17;6.70;;;2.50;;
57325;SDS011;43161;50.950;18.224;2023-04-25T01:26:42;6.60;;;2.30;;
57325;SDS011;43161;50.950;18.224;2023-04-25T01:29:15;7.40;;;2.60;;
57325;SDS011;43161;50.950;18.224;2023-04-25T01:31:42;11.50;;;2.90;;
57325;SDS011;43161;50.950;18.224;2023-04-25T01:34:08;8.10;;;2.90;;
57325;SDS011;43161;50.950;18.224;2023-04-25T01:36:34;6.90;;;2.80;;
57325;SDS011;43161;50.950;18.224;2023-04-25T01:39:00;10.00;;;2.70;;
57325;SDS011;43161;50.950;18.224;2023-04-25T01:41:26;8.00;;;3.00;;
57325;SDS011;43161;50.950;18.224;2023-04-25T01:43:53;9.00;;;2.90;;
57325;SDS011;43161;50.950;18.224;2023-04-25T01:46:19;8.50;;;3.10;;
57325;SDS011;43161;50.950;18.224;2023-04-25T01:48:45;8.30;;;3.00;;
57325;SDS011;43161;50.950;18.224;2023-04-25T01:51:11;7.20;;;2.40;;
57325;SDS011;43161;50.950;18.224;2023-04-25T01:53:37;7.10;;;2.40;;
57325;SDS011;43161;50.950;18.224;2023-04-25T01:56:03;7.60;;;2.30;;
57325;SDS011;43161;50.950;18.224;2023-04-25T01:58:29;10.00;;;2.30;;
57325;SDS011;43161;50.950;18.224;2023-04-25T02:00:55;7.80;;;2.50;;
57325;SDS011;43161;50.950;18.224;2023-04-25T02:03:21;7.30;;;2.60;;
57325;SDS011;43161;50.950;18.224;2023-04-25T02:05:47;7.80;;;2.50;;
57325;SDS011;43161;50.950;18.224;2023-04-25T02:08:13;7.50;;;2.70;;
57325;SDS011;43161;50.950;18.224;2023-04-25T02:10:38;7.60;;;2.80;;
57325;SDS011;43161;50.950;18.224;2023-04-25T02:13:04;8.10;;;2.80;;
57325;SDS011;43161;50.950;18.224;2023-04-25T02:15:30;6.60;;;2.50;;
57325;SDS011;43161;50.950;18.224;2023-04-25T02:17:56;7.60;;;2.50;;
57325;SDS011;43161;50.950;18.224;2023-04-25T02:20:23;6.70;;;2.60;;
57325;SDS011;43161;50.950;18.224;2023-04-25T02:22:50;8.40;;;2.70;;
57325;SDS011;43161;50.950;18.224;2023-04-25T02:25:16;7.20;;;2.30;;
57325;SDS011;43161;50.950;18.224;2023-04-25T02:27:43;7.40;;;2.10;;
57325;SDS011;43161;50.950;18.224;2023-04-25T02:30:08;8.70;;;2.40;;
57325;SDS011;43161;50.950;18.224;2023-04-25T02:32:34;8.00;;;2.30;;
57325;SDS011;43161;50.950;18.224;2023-04-25T02:35:00;7.90;;;2.40;;
57325;SDS011;43161;50.950;18.224;2023-04-25T02:37:30;6.50;;;2.40;;
57325;SDS011;43161;50.950;18.224;2023-04-25T02:39:56;9.00;;;2.70;;
57325;SDS011;43161;50.950;18.224;2023-04-25T02:42:22;8.00;;;2.50;;
57325;SDS011;43161;50.950;18.224;2023-04-25T02:44:48;8.40;;;2.50;;
57325;SDS011;43161;50.950;18.224;2023-04-25T02:47:13;8.20;;;2.40;;
57325;SDS011;43161;50.950;18.224;2023-04-25T02:49:39;8.00;;;2.80;;
57325;SDS011;43161;50.950;18.224;2023-04-25T02:52:05;8.20;;;2.70;;
57325;SDS011;43161;50.950;18.224;2023-04-25T02:54:31;9.00;;;2.60;;
57325;SDS011;43161;50.950;18.224;2023-04-25T02:56:57;8.80;;;2.60;;
57325;SDS011;43161;50.950;18.224;2023-04-25T02:59:22;7.10;;;2.60;;
57325;SDS011;43161;50.950;18.224;2023-04-25T03:01:48;8.80;;;2.60;;
57325;SDS011;43161;50.950;18.224;2023-04-25T03:04:14;10.10;;;2.50;;
57325;SDS011;43161;50.950;18.224;2023-04-25T03:06:40;8.20;;;2.80;;
57325;SDS011;43161;50.950;18.224;2023-04-25T03:09:06;8.40;;;2.70;;
57325;SDS011;43161;50.950;18.224;2023-04-25T03:11:32;6.70;;;2.40;;
57325;SDS011;43161;50.950;18.224;2023-04-25T03:13:58;8.20;;;2.90;;
57325;SDS011;43161;50.950;18.224;2023-04-25T03:16:23;7.20;;;2.60;;
57325;SDS011;43161;50.950;18.224;2023-04-25T03:18:49;7.40;;;2.50;;
57325;SDS011;43161;50.950;18.224;2023-04-25T03:21:16;8.90;;;2.50;;
57325;SDS011;43161;50.950;18.224;2023-04-25T03:23:42;8.00;;;2.70;;
57325;SDS011;43161;50.950;18.224;2023-04-25T03:26:08;8.00;;;2.80;;
57325;SDS011;43161;50.950;18.224;2023-04-25T03:28:33;8.60;;;3.10;;
57325;SDS011;43161;50.950;18.224;2023-04-25T03:30:59;7.60;;;2.70;;
57325;SDS011;43161;50.950;18.224;2023-04-25T03:33:24;7.60;;;2.90;;
57325;SDS011;43161;50.950;18.224;2023-04-25T03:35:50;9.40;;;2.90;;
57325;SDS011;43161;50.950;18.224;2023-04-25T03:38:16;8.00;;;2.80;;
57325;SDS011;43161;50.950;18.224;2023-04-25T03:40:42;7.50;;;2.50;;
57325;SDS011;43161;50.950;18.224;2023-04-25T03:43:08;9.40;;;3.00;;
57325;SDS011;43161;50.950;18.224;2023-04-25T03:45:33;8.20;;;2.50;;
57325;SDS011;43161;50.950;18.224;2023-04-25T03:47:59;8.10;;;2.60;;
57325;SDS011;43161;50.950;18.224;2023-04-25T03:50:24;8.10;;;2.90;;
57325;SDS011;43161;50.950;18.224;2023-04-25T03:52:50;7.80;;;3.00;;
57325;SDS011;43161;50.950;18.224;2023-04-25T03:55:15;7.00;;;2.70;;
57325;SDS011;43161;50.950;18.224;2023-04-25T03:57:41;8.80;;;3.00;;
57325;SDS011;43161;50.950;18.224;2023-04-25T04:00:07;7.50;;;2.70;;
57325;SDS011;43161;50.950;18.224;2023-04-25T04:02:33;6.70;;;2.50;;
57325;SDS011;43161;50.950;18.224;2023-04-25T04:05:01;11.20;;;3.20;;
57325;SDS011;43161;50.950;18.224;2023-04-25T04:07:26;9.70;;;3.20;;
57325;SDS011;43161;50.950;18.224;2023-04-25T04:09:52;9.70;;;2.90;;
57325;SDS011;43161;50.950;18.224;2023-04-25T04:12:17;10.10;;;3.00;;
57325;SDS011;43161;50.950;18.224;2023-04-25T04:14:43;11.10;;;3.70;;
57325;SDS011;43161;50.950;18.224;2023-04-25T04:17:08;10.20;;;3.50;;
57325;SDS011;43161;50.950;18.224;2023-04-25T04:19:34;8.90;;;3.20;;
57325;SDS011;43161;50.950;18.224;2023-04-25T04:22:00;9.70;;;3.60;;
57325;SDS011;43161;50.950;18.224;2023-04-25T04:24:26;10.00;;;3.60;;
57325;SDS011;43161;50.950;18.224;2023-04-25T04:26:51;10.30;;;3.30;;
57325;SDS011;43161;50.950;18.224;2023-04-25T04:29:18;8.90;;;3.80;;
57325;SDS011;43161;50.950;18.224;2023-04-25T04:31:49;9.70;;;3.50;;
57325;SDS011;43161;50.950;18.224;2023-04-25T04:34:18;11.10;;;3.80;;
57325;SDS011;43161;50.950;18.224;2023-04-25T04:36:45;11.50;;;3.90;;
57325;SDS011;43161;50.950;18.224;2023-04-25T04:39:12;9.90;;;3.90;;
57325;SDS011;43161;50.950;18.224;2023-04-25T04:41:38;8.70;;;3.40;;
57325;SDS011;43161;50.950;18.224;2023-04-25T04:44:04;10.00;;;4.20;;
57325;SDS011;43161;50.950;18.224;2023-04-25T04:46:32;9.70;;;3.50;;
57325;SDS011;43161;50.950;18.224;2023-04-25T04:49:05;9.40;;;3.80;;
57325;SDS011;43161;50.950;18.224;2023-04-25T04:51:31;9.20;;;3.30;;
57325;SDS011;43161;50.950;18.224;2023-04-25T04:53:57;7.90;;;3.20;;
57325;SDS011;43161;50.950;18.224;2023-04-25T04:56:24;11.30;;;3.80;;
57325;SDS011;43161;50.950;18.224;2023-04-25T04:58:50;9.10;;;3.50;;
57325;SDS011;43161;50.950;18.224;2023-04-25T05:01:17;9.70;;;3.50;;
57325;SDS011;43161;50.950;18.224;2023-04-25T05:03:43;10.40;;;3.50;;
57325;SDS011;43161;50.950;18.224;2023-04-25T05:06:09;9.50;;;3.50;;
57325;SDS011;43161;50.950;18.224;2023-04-25T05:08:35;9.00;;;3.30;;
57325;SDS011;43161;50.950;18.224;2023-04-25T05:11:02;8.00;;;2.90;;
57325;SDS011;43161;50.950;18.224;2023-04-25T05:13:27;10.10;;;3.60;;
57325;SDS011;43161;50.950;18.224;2023-04-25T05:15:53;9.60;;;3.70;;
57325;SDS011;43161;50.950;18.224;2023-04-25T05:18:18;9.80;;;3.40;;
57325;SDS011;43161;50.950;18.224;2023-04-25T05:20:44;9.40;;;3.70;;
57325;SDS011;43161;50.950;18.224;2023-04-25T05:23:10;10.30;;;3.70;;
57325;SDS011;43161;50.950;18.224;2023-04-25T05:25:36;9.40;;;3.70;;
57325;SDS011;43161;50.950;18.224;2023-04-25T05:28:02;9.50;;;3.80;;
57325;SDS011;43161;50.950;18.224;2023-04-25T05:30:28;11.20;;;3.60;;
57325;SDS011;43161;50.950;18.224;2023-04-25T05:32:53;10.70;;;4.00;;
57325;SDS011;43161;50.950;18.224;2023-04-25T05:35:19;11.40;;;4.30;;
57325;SDS011;43161;50.950;18.224;2023-04-25T05:37:45;11.90;;;4.70;;
57325;SDS011;43161;50.950;18.224;2023-04-25T05:40:11;12.60;;;4.50;;
57325;SDS011;43161;50.950;18.224;2023-04-25T05:42:37;10.80;;;4.20;;
57325;SDS011;43161;50.950;18.224;2023-04-25T05:45:03;12.20;;;4.60;;
57325;SDS011;43161;50.950;18.224;2023-04-25T05:47:30;14.10;;;4.80;;
57325;SDS011;43161;50.950;18.224;2023-04-25T05:49:55;11.20;;;4.50;;
57325;SDS011;43161;50.950;18.224;2023-04-25T05:52:21;11.00;;;4.20;;
57325;SDS011;43161;50.950;18.224;2023-04-25T05:54:48;10.00;;;4.60;;
57325;SDS011;43161;50.950;18.224;2023-04-25T05:57:47;12.40;;;4.80;;
57325;SDS011;43161;50.950;18.224;2023-04-25T06:00:07;12.40;;;5.40;;
57325;SDS011;43161;50.950;18.224;2023-04-25T06:02:34;11.60;;;4.80;;
57325;SDS011;43161;50.950;18.224;2023-04-25T06:05:00;13.10;;;5.10;;
57325;SDS011;43161;50.950;18.224;2023-04-25T06:07:28;13.30;;;5.40;;
57325;SDS011;43161;50.950;18.224;2023-04-25T06:09:55;12.80;;;4.90;;
57325;SDS011;43161;50.950;18.224;2023-04-25T06:12:21;14.80;;;5.60;;
57325;SDS011;43161;50.950;18.224;2023-04-25T06:14:47;13.00;;;5.80;;
57325;SDS011;43161;50.950;18.224;2023-04-25T06:17:12;12.90;;;5.50;;
57325;SDS011;43161;50.950;18.224;2023-04-25T06:19:38;13.30;;;5.30;;
57325;SDS011;43161;50.950;18.224;2023-04-25T06:22:04;12.30;;;5.80;;
57325;SDS011;43161;50.950;18.224;2023-04-25T06:24:29;14.20;;;5.80;;
57325;SDS011;43161;50.950;18.224;2023-04-25T06:26:55;14.60;;;6.10;;
57325;SDS011;43161;50.950;18.224;2023-04-25T06:29:21;14.50;;;6.00;;
57325;SDS011;43161;50.950;18.224;2023-04-25T06:31:46;14.50;;;6.60;;
57325;SDS011;43161;50.950;18.224;2023-04-25T06:34:13;12.80;;;5.60;;
57325;SDS011;43161;50.950;18.224;2023-04-25T06:36:38;14.10;;;7.00;;
57325;SDS011;43161;50.950;18.224;2023-04-25T06:39:04;14.70;;;6.80;;
57325;SDS011;43161;50.950;18.224;2023-04-25T06:41:30;13.00;;;6.70;;
57325;SDS011;43161;50.950;18.224;2023-04-25T06:43:56;14.50;;;7.00;;
57325;SDS011;43161;50.950;18.224;2023-04-25T06:46:21;14.10;;;6.90;;
57325;SDS011;43161;50.950;18.224;2023-04-25T06:48:47;13.90;;;6.90;;
57325;SDS011;43161;50.950;18.224;2023-04-25T06:51:12;14.10;;;6.80;;
57325;SDS011;43161;50.950;18.224;2023-04-25T06:53:38;14.40;;;6.40;;
57325;SDS011;43161;50.950;18.224;2023-04-25T06:56:05;14.90;;;6.90;;
57325;SDS011;43161;50.950;18.224;2023-04-25T06:58:31;13.30;;;6.10;;
57325;SDS011;43161;50.950;18.224;2023-04-25T07:00:57;16.80;;;7.00;;
57325;SDS011;43161;50.950;18.224;2023-04-25T07:03:22;16.90;;;6.70;;
57325;SDS011;43161;50.950;18.224;2023-04-25T07:05:49;15.80;;;7.40;;
57325;SDS011;43161;50.950;18.224;2023-04-25T07:08:16;14.70;;;7.00;;
57325;SDS011;43161;50.950;18.224;2023-04-25T07:10:42;15.00;;;7.00;;
57325;SDS011;43161;50.950;18.224;2023-04-25T07:13:08;14.80;;;6.70;;
57325;SDS011;43161;50.950;18.224;2023-04-25T07:15:33;16.30;;;7.30;;
57325;SDS011;43161;50.950;18.224;2023-04-25T07:17:59;15.60;;;6.70;;
57325;SDS011;43161;50.950;18.224;2023-04-25T07:20:25;16.20;;;7.40;;
57325;SDS011;43161;50.950;18.224;2023-04-25T07:22:52;16.60;;;6.90;;
57325;SDS011;43161;50.950;18.224;2023-04-25T07:25:19;14.80;;;6.60;;
57325;SDS011;43161;50.950;18.224;2023-04-25T07:27:45;14.40;;;6.30;;
57325;SDS011;43161;50.950;18.224;2023-04-25T07:30:11;13.70;;;6.50;;
57325;SDS011;43161;50.950;18.224;2023-04-25T07:32:38;14.30;;;6.20;;
57325;SDS011;43161;50.950;18.224;2023-04-25T07:35:04;13.90;;;5.70;;
57325;SDS011;43161;50.950;18.224;2023-04-25T07:37:32;13.70;;;5.70;;
57325;SDS011;43161;50.950;18.224;2023-04-25T07:39:59;12.20;;;5.40;;
57325;SDS011;43161;50.950;18.224;2023-04-25T07:42:25;14.00;;;5.90;;
57325;SDS011;43161;50.950;18.224;2023-04-25T07:44:50;12.60;;;5.80;;
57325;SDS011;43161;50.950;18.224;2023-04-25T07:47:17;12.50;;;6.40;;
57325;SDS011;43161;50.950;18.224;2023-04-25T07:49:44;13.50;;;6.30;;
57325;SDS011;43161;50.950;18.224;2023-04-25T07:52:10;13.70;;;6.20;;
57325;SDS011;43161;50.950;18.224;2023-04-25T07:54:36;12.80;;;5.10;;
57325;SDS011;43161;50.950;18.224;2023-04-25T07:57:02;11.60;;;5.40;;
57325;SDS011;43161;50.950;18.224;2023-04-25T07:59:28;14.20;;;5.00;;
57325;SDS011;43161;50.950;18.224;2023-04-25T08:01:54;12.70;;;4.90;;
57325;SDS011;43161;50.950;18.224;2023-04-25T08:04:22;11.40;;;4.50;;
57325;SDS011;43161;50.950;18.224;2023-04-25T08:06:49;11.10;;;4.30;;
57325;SDS011;43161;50.950;18.224;2023-04-25T08:09:15;13.20;;;5.30;;
57325;SDS011;43161;50.950;18.224;2023-04-25T08:11:42;11.40;;;4.40;;
57325;SDS011;43161;50.950;18.224;2023-04-25T08:14:08;10.00;;;4.50;;
57325;SDS011;43161;50.950;18.224;2023-04-25T08:16:34;13.10;;;5.00;;
57325;SDS011;43161;50.950;18.224;2023-04-25T08:19:00;12.80;;;4.10;;
57325;SDS011;43161;50.950;18.224;2023-04-25T08:21:26;14.30;;;4.90;;
57325;SDS011;43161;50.950;18.224;2023-04-25T08:23:52;14.90;;;6.30;;
57325;SDS011;43161;50.950;18.224;2023-04-25T08:26:18;12.50;;;5.40;;
57325;SDS011;43161;50.950;18.224;2023-04-25T08:28:44;14.90;;;7.30;;
57325;SDS011;43161;50.950;18.224;2023-04-25T08:31:09;15.80;;;5.00;;
57325;SDS011;43161;50.950;18.224;2023-04-25T08:33:35;12.40;;;4.80;;
57325;SDS011;43161;50.950;18.224;2023-04-25T08:36:01;14.70;;;5.50;;
57325;SDS011;43161;50.950;18.224;2023-04-25T08:38:27;10.60;;;4.60;;
57325;SDS011;43161;50.950;18.224;2023-04-25T08:40:52;11.00;;;4.50;;
57325;SDS011;43161;50.950;18.224;2023-04-25T08:43:20;10.70;;;4.20;;
57325;SDS011;43161;50.950;18.224;2023-04-25T08:45:46;11.50;;;4.60;;
57325;SDS011;43161;50.950;18.224;2023-04-25T08:48:13;11.60;;;4.50;;
57325;SDS011;43161;50.950;18.224;2023-04-25T08:53:27;11.70;;;4.80;;
57325;SDS011;43161;50.950;18.224;2023-04-25T08:55:58;10.30;;;4.40;;
57325;SDS011;43161;50.950;18.224;2023-04-25T08:58:24;13.40;;;5.10;;
57325;SDS011;43161;50.950;18.224;2023-04-25T09:00:51;12.00;;;3.70;;
57325;SDS011;43161;50.950;18.224;2023-04-25T09:03:17;10.50;;;3.30;;
57325;SDS011;43161;50.950;18.224;2023-04-25T09:05:43;11.40;;;4.00;;
57325;SDS011;43161;50.950;18.224;2023-04-25T09:08:09;11.40;;;3.90;;
57325;SDS011;43161;50.950;18.224;2023-04-25T09:10:36;11.90;;;4.50;;
57325;SDS011;43161;50.950;18.224;2023-04-25T09:13:06;11.30;;;4.50;;
57325;SDS011;43161;50.950;18.224;2023-04-25T09:15:47;11.10;;;4.10;;
57325;SDS011;43161;50.950;18.224;2023-04-25T09:18:13;11.30;;;3.90;;
57325;SDS011;43161;50.950;18.224;2023-04-25T09:20:41;10.10;;;3.90;;
57325;SDS011;43161;50.950;18.224;2023-04-25T09:23:08;9.00;;;3.10;;
57325;SDS011;43161;50.950;18.224;2023-04-25T09:25:36;11.90;;;3.50;;
57325;SDS011;43161;50.950;18.224;2023-04-25T09:28:05;11.80;;;3.50;;
57325;SDS011;43161;50.950;18.224;2023-04-25T09:30:32;10.00;;;3.50;;
57325;SDS011;43161;50.950;18.224;2023-04-25T09:33:05;12.00;;;3.60;;
57325;SDS011;43161;50.950;18.224;2023-04-25T09:38:20;10.30;;;3.60;;
57325;SDS011;43161;50.950;18.224;2023-04-25T09:40:47;10.90;;;3.70;;
57325;SDS011;43161;50.950;18.224;2023-04-25T09:43:18;11.70;;;3.90;;
57325;SDS011;43161;50.950;18.224;2023-04-25T09:45:46;10.30;;;3.20;;
57325;SDS011;43161;50.950;18.224;2023-04-25T09:48:19;10.30;;;3.40;;
57325;SDS011;43161;50.950;18.224;2023-04-25T09:55:58;10.20;;;4.20;;
57325;SDS011;43161;50.950;18.224;2023-04-25T09:58:25;10.60;;;4.10;;
57325;SDS011;43161;50.950;18.224;2023-04-25T10:00:56;11.70;;;4.00;;
57325;SDS011;43161;50.950;18.224;2023-04-25T10:03:26;12.10;;;4.50;;
57325;SDS011;43161;50.950;18.224;2023-04-25T10:06:01;10.80;;;4.30;;
57325;SDS011;43161;50.950;18.224;2023-04-25T10:08:31;11.40;;;4.60;;
57325;SDS011;43161;50.950;18.224;2023-04-25T10:11:00;10.80;;;4.20;;
57325;SDS011;43161;50.950;18.224;2023-04-25T10:13:28;11.80;;;4.30;;
57325;SDS011;43161;50.950;18.224;2023-04-25T10:15:55;10.30;;;4.40;;
57325;SDS011;43161;50.950;18.224;2023-04-25T10:18:23;11.40;;;4.80;;
57325;SDS011;43161;50.950;18.224;2023-04-25T10:20:49;12.50;;;5.20;;
57325;SDS011;43161;50.950;18.224;2023-04-25T10:23:15;11.60;;;5.60;;
57325;SDS011;43161;50.950;18.224;2023-04-25T10:25:42;11.60;;;5.20;;
57325;SDS011;43161;50.950;18.224;2023-04-25T10:28:08;13.60;;;5.10;;
57325;SDS011;43161;50.950;18.224;2023-04-25T10:30:34;13.60;;;6.00;;
57325;SDS011;43161;50.950;18.224;2023-04-25T10:32:59;12.60;;;5.00;;
57325;SDS011;43161;50.950;18.224;2023-04-25T10:35:26;13.50;;;5.50;;
57325;SDS011;43161;50.950;18.224;2023-04-25T10:37:56;14.60;;;5.60;;
57325;SDS011;43161;50.950;18.224;2023-04-25T10:40:26;12.00;;;5.00;;
57325;SDS011;43161;50.950;18.224;2023-04-25T10:42:52;12.50;;;5.60;;
57325;SDS011;43161;50.950;18.224;2023-04-25T10:45:20;12.80;;;5.40;;
57325;SDS011;43161;50.950;18.224;2023-04-25T10:47:46;12.50;;;5.40;;
57325;SDS011;43161;50.950;18.224;2023-04-25T10:50:12;12.40;;;5.80;;
57325;SDS011;43161;50.950;18.224;2023-04-25T10:52:41;12.90;;;5.60;;
57325;SDS011;43161;50.950;18.224;2023-04-25T10:55:07;11.80;;;5.00;;
57325;SDS011;43161;50.950;18.224;2023-04-25T10:57:38;15.20;;;5.70;;
57325;SDS011;43161;50.950;18.224;2023-04-25T11:07:54;10.20;;;5.00;;
57325;SDS011;43161;50.950;18.224;2023-04-25T11:10:29;12.40;;;5.50;;
57325;SDS011;43161;50.950;18.224;2023-04-25T11:12:57;17.20;;;8.70;;
57325;SDS011;43161;50.950;18.224;2023-04-25T11:15:24;12.50;;;6.10;;
57325;SDS011;43161;50.950;18.224;2023-04-25T11:17:53;12.80;;;5.60;;
57325;SDS011;43161;50.950;18.224;2023-04-25T11:20:19;12.70;;;5.50;;
57325;SDS011;43161;50.950;18.224;2023-04-25T11:22:46;12.10;;;5.20;;
57325;SDS011;43161;50.950;18.224;2023-04-25T11:25:13;11.60;;;5.30;;
57325;SDS011;43161;50.950;18.224;2023-04-25T11:30:23;11.00;;;5.10;;
57325;SDS011;43161;50.950;18.224;2023-04-25T11:32:50;11.60;;;5.50;;
57325;SDS011;43161;50.950;18.224;2023-04-25T11:35:17;11.30;;;4.60;;
57325;SDS011;43161;50.950;18.224;2023-04-25T11:37:44;16.30;;;8.10;;
57325;SDS011;43161;50.950;18.224;2023-04-25T11:40:10;12.40;;;5.70;;
57325;SDS011;43161;50.950;18.224;2023-04-25T11:42:42;16.20;;;7.50;;
57325;SDS011;43161;50.950;18.224;2023-04-25T11:45:09;13.70;;;6.60;;
57325;SDS011;43161;50.950;18.224;2023-04-25T11:47:36;16.30;;;9.80;;
57325;SDS011;43161;50.950;18.224;2023-04-25T11:50:02;16.70;;;8.20;;
57325;SDS011;43161;50.950;18.224;2023-04-25T11:55:15;9.80;;;4.30;;
57325;SDS011;43161;50.950;18.224;2023-04-25T11:57:42;12.60;;;6.00;;
57325;SDS011;43161;50.950;18.224;2023-04-25T12:00:13;11.00;;;4.70;;
57325;SDS011;43161;50.950;18.224;2023-04-25T12:02:44;23.90;;;15.10;;
57325;SDS011;43161;50.950;18.224;2023-04-25T12:05:12;14.60;;;7.10;;
57325;SDS011;43161;50.950;18.224;2023-04-25T12:07:39;13.00;;;5.20;;
57325;SDS011;43161;50.950;18.224;2023-04-25T12:10:07;17.80;;;8.50;;
57325;SDS011;43161;50.950;18.224;2023-04-25T12:12:33;14.90;;;6.70;;
57325;SDS011;43161;50.950;18.224;2023-04-25T12:17:58;13.20;;;6.00;;
57325;SDS011;43161;50.950;18.224;2023-04-25T12:20:24;12.00;;;5.20;;
57325;SDS011;43161;50.950;18.224;2023-04-25T12:22:51;16.40;;;5.80;;
57325;SDS011;43161;50.950;18.224;2023-04-25T12:28:15;11.80;;;4.80;;
57325;SDS011;43161;50.950;18.224;2023-04-25T12:33:28;10.70;;;3.90;;
57325;SDS011;43161;50.950;18.224;2023-04-25T12:35:55;9.00;;;3.20;;
57325;SDS011;43161;50.950;18.224;2023-04-25T12:38:22;11.60;;;3.80;;
57325;SDS011;43161;50.950;18.224;2023-04-25T12:40:48;11.20;;;4.60;;
57325;SDS011;43161;50.950;18.224;2023-04-25T12:43:13;9.90;;;3.90;;
57325;SDS011;43161;50.950;18.224;2023-04-25T12:45:39;10.20;;;4.60;;
57325;SDS011;43161;50.950;18.224;2023-04-25T12:48:05;9.80;;;4.20;;
57325;SDS011;43161;50.950;18.224;2023-04-25T12:50:30;12.60;;;4.20;;
57325;SDS011;43161;50.950;18.224;2023-04-25T12:52:57;11.70;;;4.60;;
57325;SDS011;43161;50.950;18.224;2023-04-25T12:55:22;11.80;;;4.40;;
57325;SDS011;43161;50.950;18.224;2023-04-25T12:57:48;9.20;;;3.80;;
57325;SDS011;43161;50.950;18.224;2023-04-25T13:00:14;10.10;;;3.40;;
57325;SDS011;43161;50.950;18.224;2023-04-25T13:02:43;12.80;;;5.60;;
57325;SDS011;43161;50.950;18.224;2023-04-25T13:05:09;11.30;;;3.90;;
57325;SDS011;43161;50.950;18.224;2023-04-25T13:07:34;10.40;;;3.60;;
57325;SDS011;43161;50.950;18.224;2023-04-25T13:10:00;9.10;;;3.10;;
57325;SDS011;43161;50.950;18.224;2023-04-25T13:12:28;10.50;;;3.50;;
57325;SDS011;43161;50.950;18.224;2023-04-25T13:14:55;11.20;;;3.50;;
57325;SDS011;43161;50.950;18.224;2023-04-25T13:17:20;10.20;;;2.70;;
57325;SDS011;43161;50.950;18.224;2023-04-25T13:19:47;9.30;;;2.30;;
57325;SDS011;43161;50.950;18.224;2023-04-25T13:22:12;10.10;;;3.50;;
57325;SDS011;43161;50.950;18.224;2023-04-25T13:24:40;8.80;;;2.20;;
57325;SDS011;43161;50.950;18.224;2023-04-25T13:27:06;7.90;;;2.40;;
57325;SDS011;43161;50.950;18.224;2023-04-25T13:29:31;9.80;;;2.90;;
57325;SDS011;43161;50.950;18.224;2023-04-25T13:32:03;13.70;;;5.00;;
57325;SDS011;43161;50.950;18.224;2023-04-25T13:34:29;7.30;;;2.10;;
57325;SDS011;43161;50.950;18.224;2023-04-25T13:36:56;11.20;;;3.30;;
57325;SDS011;43161;50.950;18.224;2023-04-25T13:39:22;9.00;;;2.10;;
57325;SDS011;43161;50.950;18.224;2023-04-25T13:41:47;5.80;;;1.70;;
57325;SDS011;43161;50.950;18.224;2023-04-25T13:44:13;16.10;;;4.70;;
57325;SDS011;43161;50.950;18.224;2023-04-25T13:46:39;7.50;;;1.80;;
57325;SDS011;43161;50.950;18.224;2023-04-25T13:49:05;14.50;;;4.20;;
57325;SDS011;43161;50.950;18.224;2023-04-25T13:51:31;9.00;;;2.50;;
57325;SDS011;43161;50.950;18.224;2023-04-25T13:53:56;8.20;;;2.40;;
57325;SDS011;43161;50.950;18.224;2023-04-25T13:56:22;15.40;;;4.90;;
57325;SDS011;43161;50.950;18.224;2023-04-25T13:58:51;10.40;;;3.10;;
57325;SDS011;43161;50.950;18.224;2023-04-25T14:01:17;7.00;;;2.00;;
57325;SDS011;43161;50.950;18.224;2023-04-25T14:03:44;7.40;;;2.00;;
57325;SDS011;43161;50.950;18.224;2023-04-25T14:06:10;7.30;;;2.20;;
57325;SDS011;43161;50.950;18.224;2023-04-25T14:08:38;9.10;;;2.70;;
57325;SDS011;43161;50.950;18.224;2023-04-25T14:11:04;6.20;;;1.80;;
57325;SDS011;43161;50.950;18.224;2023-04-25T14:13:29;21.10;;;6.30;;
57325;SDS011;43161;50.950;18.224;2023-04-25T14:15:55;8.20;;;2.00;;
57325;SDS011;43161;50.950;18.224;2023-04-25T14:18:21;7.60;;;2.10;;
57325;SDS011;43161;50.950;18.224;2023-04-25T14:20:47;5.60;;;1.70;;
57325;SDS011;43161;50.950;18.224;2023-04-25T14:23:13;15.80;;;5.20;;
57325;SDS011;43161;50.950;18.224;2023-04-25T14:25:39;10.60;;;3.10;;
57325;SDS011;43161;50.950;18.224;2023-04-25T14:28:07;7.70;;;2.50;;
57325;SDS011;43161;50.950;18.224;2023-04-25T14:30:33;5.50;;;1.60;;
57325;SDS011;43161;50.950;18.224;2023-04-25T14:32:58;10.30;;;3.10;;
57325;SDS011;43161;50.950;18.224;2023-04-25T14:35:24;15.70;;;5.20;;
57325;SDS011;43161;50.950;18.224;2023-04-25T14:37:49;9.40;;;3.10;;
57325;SDS011;43161;50.950;18.224;2023-04-25T14:40:15;15.10;;;5.20;;
57325;SDS011;43161;50.950;18.224;2023-04-25T14:42:42;15.10;;;4.80;;
57325;SDS011;43161;50.950;18.224;2023-04-25T14:45:08;12.60;;;4.60;;
57325;SDS011;43161;50.950;18.224;2023-04-25T14:47:34;9.60;;;2.60;;
57325;SDS011;43161;50.950;18.224;2023-04-25T14:50:03;9.20;;;3.10;;
57325;SDS011;43161;50.950;18.224;2023-04-25T14:52:30;9.30;;;3.40;;
57325;SDS011;43161;50.950;18.224;2023-04-25T14:54:56;9.60;;;3.20;;